sensor_id;sensor_type;location;lat;lon;timestamp;pressure;altitude;pressure_sealevel;temperature;humidity
61039;BME280;46919;45.816;3.104;2023-05-13T00:00:18;97846.25;;;10.47;100.00
61039;BME280;46919;45.816;3.104;2023-05-13T00:02:44;97847.91;;;10.48;100.00
61039;BME280;46919;45.816;3.104;2023-05-13T00:05:09;97840.03;;;10.47;100.00
61039;BME280;46919;45.816;3.104;2023-05-13T00:07:34;97840.03;;;10.47;100.00
61039;BME280;46919;45.816;3.104;2023-05-13T00:10:00;97843.56;;;10.47;100.00
61039;BME280;46919;45.816;3.104;2023-05-13T00:12:25;97840.63;;;10.49;100.00
61039;BME280;46919;45.816;3.104;2023-05-13T00:14:51;97832.16;;;10.45;100.00
61039;BME280;46919;45.816;3.104;2023-05-13T00:17:16;97835.44;;;10.47;100.00
61039;BME280;46919;45.816;3.104;2023-05-13T00:19:41;97830.50;;;10.44;100.00
61039;BME280;46919;45.816;3.104;2023-05-13T00:22:07;97831.31;;;10.45;100.00
61039;BME280;46919;45.816;3.104;2023-05-13T00:24:32;97829.22;;;10.47;100.00
61039;BME280;46919;45.816;3.104;2023-05-13T00:26:58;97827.13;;;10.49;100.00
61039;BME280;46919;45.816;3.104;2023-05-13T00:29:23;97836.25;;;10.48;100.00
61039;BME280;46919;45.816;3.104;2023-05-13T00:31:49;97836.03;;;10.49;100.00
61039;BME280;46919;45.816;3.104;2023-05-13T00:34:15;97838.16;;;10.47;100.00
61039;BME280;46919;45.816;3.104;2023-05-13T00:36:42;97842.50;;;10.48;100.00
61039;BME280;46919;45.816;3.104;2023-05-13T00:39:08;97841.06;;;10.46;100.00
61039;BME280;46919;45.816;3.104;2023-05-13T00:41:33;97832.59;;;10.42;100.00
61039;BME280;46919;45.816;3.104;2023-05-13T00:43:58;97837.16;;;10.42;100.00
61039;BME280;46919;45.816;3.104;2023-05-13T00:46:24;97829.06;;;10.42;100.00
61039;BME280;46919;45.816;3.104;2023-05-13T00:48:50;97829.69;;;10.44;100.00
61039;BME280;46919;45.816;3.104;2023-05-13T00:51:16;97835.06;;;10.44;100.00
61039;BME280;46919;45.816;3.104;2023-05-13T00:53:42;97828.00;;;10.43;100.00
61039;BME280;46919;45.816;3.104;2023-05-13T00:56:08;97832.81;;;10.41;100.00
61039;BME280;46919;45.816;3.104;2023-05-13T00:58:33;97834.22;;;10.43;100.00
61039;BME280;46919;45.816;3.104;2023-05-13T01:05:01;97824.28;;;10.44;100.00
61039;BME280;46919;45.816;3.104;2023-05-13T01:12:16;97822.69;;;10.36;100.00
61039;BME280;46919;45.816;3.104;2023-05-13T01:15:06;97827.25;;;10.36;100.00
61039;BME280;46919;45.816;3.104;2023-05-13T01:20:21;97831.03;;;10.35;100.00
61039;BME280;46919;45.816;3.104;2023-05-13T01:22:47;97830.78;;;10.36;100.00
61039;BME280;46919;45.816;3.104;2023-05-13T01:25:13;97835.97;;;10.38;100.00
61039;BME280;46919;45.816;3.104;2023-05-13T01:27:38;97831.59;;;10.37;100.00
61039;BME280;46919;45.816;3.104;2023-05-13T01:30:05;97831.59;;;10.37;100.00
61039;BME280;46919;45.816;3.104;2023-05-13T01:32:32;97822.69;;;10.36;100.00
61039;BME280;46919;45.816;3.104;2023-05-13T01:34:59;97825.41;;;10.36;100.00
61039;BME280;46919;45.816;3.104;2023-05-13T01:37:26;97834.75;;;10.33;100.00
61039;BME280;46919;45.816;3.104;2023-05-13T01:39:52;97830.63;;;10.31;100.00
61039;BME280;46919;45.816;3.104;2023-05-13T01:42:18;97824.38;;;10.30;100.00
61039;BME280;46919;45.816;3.104;2023-05-13T01:44:43;97825.22;;;10.31;100.00
61039;BME280;46919;45.816;3.104;2023-05-13T01:47:09;97832.69;;;10.29;100.00
61039;BME280;46919;45.816;3.104;2023-05-13T01:49:34;97833.53;;;10.29;100.00
61039;BME280;46919;45.816;3.104;2023-05-13T01:52:00;97830.22;;;10.27;100.00
61039;BME280;46919;45.816;3.104;2023-05-13T01:54:25;97834.00;;;10.26;100.00
61039;BME280;46919;45.816;3.104;2023-05-13T01:56:51;97831.28;;;10.26;100.00
61039;BME280;46919;45.816;3.104;2023-05-13T01:59:17;97829.41;;;10.27;100.00
61039;BME280;46919;45.816;3.104;2023-05-13T02:01:42;97836.69;;;10.26;100.00
61039;BME280;46919;45.816;3.104;2023-05-13T02:04:09;97825.88;;;10.26;100.00
61039;BME280;46919;45.816;3.104;2023-05-13T02:06:34;97835.25;;;10.24;100.00
61039;BME280;46919;45.816;3.104;2023-05-13T02:09:00;97826.34;;;10.23;100.00
61039;BME280;46919;45.816;3.104;2023-05-13T02:11:26;97827.38;;;10.22;100.00
61039;BME280;46919;45.816;3.104;2023-05-13T02:13:51;97827.00;;;10.19;100.00
61039;BME280;46919;45.816;3.104;2023-05-13T02:16:17;97826.78;;;10.20;100.00
61039;BME280;46919;45.816;3.104;2023-05-13T02:18:43;97827.00;;;10.19;100.00
61039;BME280;46919;45.816;3.104;2023-05-13T02:21:08;97822.63;;;10.18;100.00
61039;BME280;46919;45.816;3.104;2023-05-13T02:23:34;97828.84;;;10.18;100.00
61039;BME280;46919;45.816;3.104;2023-05-13T02:25:59;97831.78;;;10.16;100.00
61039;BME280;46919;45.816;3.104;2023-05-13T02:28:25;97831.56;;;10.18;100.00
61039;BME280;46919;45.816;3.104;2023-05-13T02:30:50;97819.94;;;10.18;100.00
61039;BME280;46919;45.816;3.104;2023-05-13T02:33:16;97818.69;;;10.20;100.00
61039;BME280;46919;45.816;3.104;2023-05-13T02:35:42;97823.22;;;10.20;100.00
61039;BME280;46919;45.816;3.104;2023-05-13T02:38:10;97824.91;;;10.21;100.00
61039;BME280;46919;45.816;3.104;2023-05-13T02:40:36;97827.38;;;10.22;100.00
61039;BME280;46919;45.816;3.104;2023-05-13T02:43:01;97827.81;;;10.19;100.00
61039;BME280;46919;45.816;3.104;2023-05-13T02:45:27;97826.16;;;10.18;100.00
61039;BME280;46919;45.816;3.104;2023-05-13T02:47:52;97828.84;;;10.18;100.00
61039;BME280;46919;45.816;3.104;2023-05-13T02:50:18;97832.41;;;10.19;100.00
61039;BME280;46919;45.816;3.104;2023-05-13T02:52:43;97826.16;;;10.18;100.00
61039;BME280;46919;45.816;3.104;2023-05-13T02:55:09;97830.97;;;10.16;100.00
61039;BME280;46919;45.816;3.104;2023-05-13T02:57:35;97826.84;;;10.13;100.00
61039;BME280;46919;45.816;3.104;2023-05-13T03:00:02;97828.72;;;10.13;100.00
61039;BME280;46919;45.816;3.104;2023-05-13T03:02:29;97820.38;;;10.14;100.00
61039;BME280;46919;45.816;3.104;2023-05-13T03:04:54;97822.88;;;10.16;100.00
61039;BME280;46919;45.816;3.104;2023-05-13T03:07:21;97826.63;;;10.15;100.00
61039;BME280;46919;45.816;3.104;2023-05-13T03:09:46;97832.47;;;10.12;100.00
61039;BME280;46919;45.816;3.104;2023-05-13T03:12:12;97838.69;;;10.12;100.00
61039;BME280;46919;45.816;3.104;2023-05-13T03:14:37;97838.91;;;10.11;100.00
61039;BME280;46919;45.816;3.104;2023-05-13T03:17:04;97843.28;;;10.12;100.00
61039;BME280;46919;45.816;3.104;2023-05-13T03:19:30;97845.97;;;10.12;100.00
61039;BME280;46919;45.816;3.104;2023-05-13T03:21:56;97843.28;;;10.12;100.00
61039;BME280;46919;45.816;3.104;2023-05-13T03:24:21;97846.78;;;10.12;100.00
61039;BME280;46919;45.816;3.104;2023-05-13T03:26:47;97848.69;;;10.12;100.00
61039;BME280;46919;45.816;3.104;2023-05-13T03:29:12;97844.91;;;10.13;100.00
61039;BME280;46919;45.816;3.104;2023-05-13T03:31:37;97850.31;;;10.13;100.00
61039;BME280;46919;45.816;3.104;2023-05-13T03:34:03;97846.19;;;10.10;100.00
61039;BME280;46919;45.816;3.104;2023-05-13T03:36:28;97847.63;;;10.13;100.00
61039;BME280;46919;45.816;3.104;2023-05-13T03:38:57;97853.63;;;10.15;100.00
61039;BME280;46919;45.816;3.104;2023-05-13T03:41:22;97846.56;;;10.14;100.00
61039;BME280;46919;45.816;3.104;2023-05-13T03:43:48;97846.56;;;10.14;100.00
61039;BME280;46919;45.816;3.104;2023-05-13T03:46:13;97856.56;;;10.13;100.00
61039;BME280;46919;45.816;3.104;2023-05-13T03:48:39;97860.53;;;10.11;100.00
61039;BME280;46919;45.816;3.104;2023-05-13T03:51:04;97858.03;;;10.09;100.00
61039;BME280;46919;45.816;3.104;2023-05-13T03:53:30;97865.91;;;10.11;100.00
61039;BME280;46919;45.816;3.104;2023-05-13T03:55:56;97860.75;;;10.09;100.00
61039;BME280;46919;45.816;3.104;2023-05-13T03:58:21;97865.31;;;10.09;100.00
61039;BME280;46919;45.816;3.104;2023-05-13T04:00:47;97865.31;;;10.09;100.00
61039;BME280;46919;45.816;3.104;2023-05-13T04:03:13;97871.53;;;10.09;100.00
61039;BME280;46919;45.816;3.104;2023-05-13T04:05:40;97861.34;;;10.11;100.00
61039;BME280;46919;45.816;3.104;2023-05-13T04:08:05;97866.50;;;10.13;100.00
61039;BME280;46919;45.816;3.104;2023-05-13T04:10:31;97864.44;;;10.15;100.00
61039;BME280;46919;45.816;3.104;2023-05-13T04:12:56;97869.84;;;10.15;100.00
61039;BME280;46919;45.816;3.104;2023-05-13T04:15:22;97865.47;;;10.14;100.00
61039;BME280;46919;45.816;3.104;2023-05-13T04:17:47;97874.63;;;10.13;100.00
61039;BME280;46919;45.816;3.104;2023-05-13T04:20:13;97874.41;;;10.14;100.00
61039;BME280;46919;45.816;3.104;2023-05-13T04:22:38;97873.00;;;10.12;100.00
61039;BME280;46919;45.816;3.104;2023-05-13T04:25:04;97868.41;;;10.12;100.00
61039;BME280;46919;45.816;3.104;2023-05-13T04:27:29;97873.59;;;10.14;100.00
61039;BME280;46919;45.816;3.104;2023-05-13T04:29:55;97882.72;;;10.13;100.00
61039;BME280;46919;45.816;3.104;2023-05-13T04:32:21;97875.06;;;10.10;100.00
61039;BME280;46919;45.816;3.104;2023-05-13T04:34:51;97870.28;;;10.12;100.00
61039;BME280;46919;45.816;3.104;2023-05-13T04:37:16;97869.66;;;10.10;100.00
61039;BME280;46919;45.816;3.104;2023-05-13T04:39:44;97869.44;;;10.11;100.00
61039;BME280;46919;45.816;3.104;2023-05-13T04:42:11;97872.13;;;10.11;100.00
61039;BME280;46919;45.816;3.104;2023-05-13T04:44:36;97872.59;;;10.08;100.00
61039;BME280;46919;45.816;3.104;2023-05-13T04:47:02;97879.44;;;10.11;100.00
61039;BME280;46919;45.816;3.104;2023-05-13T04:49:27;97863.81;;;10.13;100.00
61039;BME280;46919;45.816;3.104;2023-05-13T04:51:53;97872.38;;;10.10;100.00
61039;BME280;46919;45.816;3.104;2023-05-13T04:54:18;97865.31;;;10.09;100.00
61039;BME280;46919;45.816;3.104;2023-05-13T04:56:44;97867.81;;;10.10;100.00
61039;BME280;46919;45.816;3.104;2023-05-13T04:59:09;97870.28;;;10.12;100.00
61039;BME280;46919;45.816;3.104;2023-05-13T05:01:35;97875.47;;;10.13;100.00
61039;BME280;46919;45.816;3.104;2023-05-13T05:04:00;97879.56;;;10.16;100.00
61039;BME280;46919;45.816;3.104;2023-05-13T05:06:26;97887.69;;;10.16;100.00
61039;BME280;46919;45.816;3.104;2023-05-13T05:08:51;97888.75;;;10.15;100.00
61039;BME280;46919;45.816;3.104;2023-05-13T05:11:17;97884.75;;;10.18;100.00
61039;BME280;46919;45.816;3.104;2023-05-13T05:13:42;97891.59;;;10.20;100.00
61039;BME280;46919;45.816;3.104;2023-05-13T05:16:08;97892.41;;;10.21;100.00
61039;BME280;46919;45.816;3.104;2023-05-13T05:18:33;97890.31;;;10.23;100.00
61039;BME280;46919;45.816;3.104;2023-05-13T05:21:00;97891.16;;;10.23;100.00
61039;BME280;46919;45.816;3.104;2023-05-13T05:23:26;97896.34;;;10.25;100.00
61039;BME280;46919;45.816;3.104;2023-05-13T05:25:52;97892.13;;;10.29;100.00
61039;BME280;46919;45.816;3.104;2023-05-13T05:28:17;97895.44;;;10.31;100.00
61039;BME280;46919;45.816;3.104;2023-05-13T05:30:42;97901.88;;;10.30;100.00
61039;BME280;46919;45.816;3.104;2023-05-13T05:33:08;97900.00;;;10.30;100.00
61039;BME280;46919;45.816;3.104;2023-05-13T05:35:33;97915.19;;;10.31;100.00
61039;BME280;46919;45.816;3.104;2023-05-13T05:38:03;97908.09;;;10.30;100.00
61039;BME280;46919;45.816;3.104;2023-05-13T05:40:31;97912.47;;;10.31;100.00
61039;BME280;46919;45.816;3.104;2023-05-13T05:42:57;97916.41;;;10.36;100.00
61039;BME280;46919;45.816;3.104;2023-05-13T05:45:22;97915.34;;;10.37;100.00
61039;BME280;46919;45.816;3.104;2023-05-13T05:47:48;97912.22;;;10.40;100.00
61039;BME280;46919;45.816;3.104;2023-05-13T05:50:13;97919.06;;;10.42;100.00
61039;BME280;46919;45.816;3.104;2023-05-13T05:52:39;97912.38;;;10.45;100.00
61039;BME280;46919;45.816;3.104;2023-05-13T05:55:04;97911.91;;;10.48;100.00
61039;BME280;46919;45.816;3.104;2023-05-13T05:57:31;97914.16;;;10.51;100.00
61039;BME280;46919;45.816;3.104;2023-05-13T05:59:57;97918.09;;;10.55;100.00
61039;BME280;46919;45.816;3.104;2023-05-13T06:02:22;97923.88;;;10.59;100.00
61039;BME280;46919;45.816;3.104;2023-05-13T06:04:47;97917.66;;;10.58;100.00
61039;BME280;46919;45.816;3.104;2023-05-13T06:07:13;97923.50;;;10.55;100.00
61039;BME280;46919;45.816;3.104;2023-05-13T06:09:38;97916.88;;;10.51;100.00
61039;BME280;46919;45.816;3.104;2023-05-13T06:12:04;97925.34;;;10.55;100.00
61039;BME280;46919;45.816;3.104;2023-05-13T06:14:30;97928.47;;;10.58;100.00
61039;BME280;46919;45.816;3.104;2023-05-13T06:16:55;97923.28;;;10.57;100.00
61039;BME280;46919;45.816;3.104;2023-05-13T06:19:21;97928.06;;;10.55;100.00
61039;BME280;46919;45.816;3.104;2023-05-13T06:21:46;97926.56;;;10.59;100.00
61039;BME280;46919;45.816;3.104;2023-05-13T06:24:12;97928.22;;;10.60;100.00
61039;BME280;46919;45.816;3.104;2023-05-13T06:26:38;97926.34;;;10.60;100.00
61039;BME280;46919;45.816;3.104;2023-05-13T06:29:03;97925.91;;;10.63;100.00
61039;BME280;46919;45.816;3.104;2023-05-13T06:31:28;97933.34;;;10.68;100.00
61039;BME280;46919;45.816;3.104;2023-05-13T06:33:54;97928.31;;;10.72;100.00
61039;BME280;46919;45.816;3.104;2023-05-13T06:36:19;97933.63;;;10.78;100.00
61039;BME280;46919;45.816;3.104;2023-05-13T06:38:45;97934.16;;;10.87;100.00
61039;BME280;46919;45.816;3.104;2023-05-13T06:41:10;97933.13;;;10.88;100.00
61039;BME280;46919;45.816;3.104;2023-05-13T06:43:36;97934.31;;;10.92;100.00
61039;BME280;46919;45.816;3.104;2023-05-13T06:46:01;97937.16;;;10.97;100.00
61039;BME280;46919;45.816;3.104;2023-05-13T06:48:27;97938.81;;;10.98;100.00
61039;BME280;46919;45.816;3.104;2023-05-13T06:50:52;97943.41;;;10.98;100.00
61039;BME280;46919;45.816;3.104;2023-05-13T06:53:18;97939.41;;;11.00;100.00
61039;BME280;46919;45.816;3.104;2023-05-13T06:55:43;97937.31;;;11.02;100.00
61039;BME280;46919;45.816;3.104;2023-05-13T06:58:09;97936.03;;;11.05;100.00
61039;BME280;46919;45.816;3.104;2023-05-13T07:00:39;97927.00;;;11.11;100.00
61039;BME280;46919;45.816;3.104;2023-05-13T07:03:05;97932.94;;;11.20;100.00
61039;BME280;46919;45.816;3.104;2023-05-13T07:05:34;97928.72;;;11.24;100.00
61039;BME280;46919;45.816;3.104;2023-05-13T07:08:00;97933.81;;;11.32;100.00
61039;BME280;46919;45.816;3.104;2023-05-13T07:10:31;97929.16;;;11.39;100.00
61039;BME280;46919;45.816;3.104;2023-05-13T07:12:56;97933.66;;;11.46;100.00
61039;BME280;46919;45.816;3.104;2023-05-13T07:15:21;97928.47;;;11.44;100.00
61039;BME280;46919;45.816;3.104;2023-05-13T07:17:48;97929.50;;;11.43;100.00
61039;BME280;46919;45.816;3.104;2023-05-13T07:20:13;97936.94;;;11.48;100.00
61039;BME280;46919;45.816;3.104;2023-05-13T07:22:39;97929.34;;;11.56;100.00
61039;BME280;46919;45.816;3.104;2023-05-13T07:25:04;97933.91;;;11.56;100.00
61039;BME280;46919;45.816;3.104;2023-05-13T07:27:30;97926.41;;;11.58;100.00
61039;BME280;46919;45.816;3.104;2023-05-13T07:29:55;97927.13;;;11.65;100.00
61039;BME280;46919;45.816;3.104;2023-05-13T07:32:21;97922.66;;;11.71;100.00
61039;BME280;46919;45.816;3.104;2023-05-13T07:34:46;97924.06;;;11.73;100.00
61039;BME280;46919;45.816;3.104;2023-05-13T07:37:11;97933.16;;;11.79;100.00
61039;BME280;46919;45.816;3.104;2023-05-13T07:39:37;97929.06;;;11.88;100.00
61039;BME280;46919;45.816;3.104;2023-05-13T07:42:02;97926.13;;;11.90;100.00
61039;BME280;46919;45.816;3.104;2023-05-13T07:44:28;97923.81;;;11.93;100.00
61039;BME280;46919;45.816;3.104;2023-05-13T07:46:54;97926.88;;;11.97;100.00
61039;BME280;46919;45.816;3.104;2023-05-13T07:49:20;97936.66;;;11.98;100.00
61039;BME280;46919;45.816;3.104;2023-05-13T07:51:45;97932.50;;;11.95;100.00
61039;BME280;46919;45.816;3.104;2023-05-13T07:54:11;97933.34;;;11.96;100.00
61039;BME280;46919;45.816;3.104;2023-05-13T07:56:36;97934.41;;;11.95;100.00
61039;BME280;46919;45.816;3.104;2023-05-13T07:59:03;97940.13;;;11.87;100.00
61039;BME280;46919;45.816;3.104;2023-05-13T08:01:28;97939.78;;;11.83;100.00
61039;BME280;46919;45.816;3.104;2023-05-13T08:03:54;97945.28;;;11.76;100.00
61039;BME280;46919;45.816;3.104;2023-05-13T08:06:20;97935.97;;;11.72;100.00
61039;BME280;46919;45.816;3.104;2023-05-13T08:08:45;97939.72;;;11.71;100.00
61039;BME280;46919;45.816;3.104;2023-05-13T08:11:11;97944.91;;;11.73;100.00
61039;BME280;46919;45.816;3.104;2023-05-13T08:13:37;97938.22;;;11.75;100.00
61039;BME280;46919;45.816;3.104;2023-05-13T08:16:03;97937.75;;;11.78;100.00
61039;BME280;46919;45.816;3.104;2023-05-13T08:18:28;97933.50;;;11.83;100.00
61039;BME280;46919;45.816;3.104;2023-05-13T08:20:54;97940.72;;;11.89;100.00
61039;BME280;46919;45.816;3.104;2023-05-13T08:23:19;97939.66;;;11.90;100.00
61039;BME280;46919;45.816;3.104;2023-05-13T08:25:45;97943.66;;;11.87;100.00
61039;BME280;46919;45.816;3.104;2023-05-13T08:28:10;97941.19;;;11.86;100.00
61039;BME280;46919;45.816;3.104;2023-05-13T08:30:36;97942.25;;;11.85;100.00
61039;BME280;46919;45.816;3.104;2023-05-13T08:33:01;97938.69;;;11.84;100.00
61039;BME280;46919;45.816;3.104;2023-05-13T08:35:27;97942.25;;;11.85;100.00
61039;BME280;46919;45.816;3.104;2023-05-13T08:37:52;97933.06;;;11.86;100.00
61039;BME280;46919;45.816;3.104;2023-05-13T08:40:17;97934.25;;;11.90;100.00
61039;BME280;46919;45.816;3.104;2023-05-13T08:42:44;97940.41;;;11.97;100.00
61039;BME280;46919;45.816;3.104;2023-05-13T08:45:12;97938.78;;;11.96;100.00
61039;BME280;46919;45.816;3.104;2023-05-13T08:47:45;97936.06;;;11.96;100.00
61039;BME280;46919;45.816;3.104;2023-05-13T08:50:13;97936.06;;;11.96;100.00
61039;BME280;46919;45.816;3.104;2023-05-13T08:52:39;97939.94;;;12.00;100.00
61039;BME280;46919;45.816;3.104;2023-05-13T08:55:05;97937.13;;;12.07;100.00
61039;BME280;46919;45.816;3.104;2023-05-13T08:57:32;97939.75;;;12.13;100.00
61039;BME280;46919;45.816;3.104;2023-05-13T08:59:57;97942.09;;;12.22;100.00
61039;BME280;46919;45.816;3.104;2023-05-13T09:02:23;97933.63;;;12.30;100.00
61039;BME280;46919;45.816;3.104;2023-05-13T09:04:51;97938.69;;;12.38;100.00
61039;BME280;46919;45.816;3.104;2023-05-13T09:07:17;97942.13;;;12.45;100.00
61039;BME280;46919;45.816;3.104;2023-05-13T09:09:43;97948.69;;;12.49;100.00
61039;BME280;46919;45.816;3.104;2023-05-13T09:12:09;97949.09;;;12.53;100.00
61039;BME280;46919;45.816;3.104;2023-05-13T09:14:36;97946.13;;;12.55;100.00
61039;BME280;46919;45.816;3.104;2023-05-13T09:17:02;97956.00;;;12.61;100.00
61039;BME280;46919;45.816;3.104;2023-05-13T09:19:28;97944.69;;;12.64;100.00
61039;BME280;46919;45.816;3.104;2023-05-13T09:21:53;97950.25;;;12.57;100.00
61039;BME280;46919;45.816;3.104;2023-05-13T09:24:19;97956.28;;;12.59;100.00
61039;BME280;46919;45.816;3.104;2023-05-13T09:26:47;97943.88;;;12.63;100.00
61039;BME280;46919;45.816;3.104;2023-05-13T09:29:17;97954.59;;;12.70;100.00
61039;BME280;46919;45.816;3.104;2023-05-13T09:31:44;97940.69;;;12.78;100.00
61039;BME280;46919;45.816;3.104;2023-05-13T09:34:10;97943.50;;;12.83;100.00
61039;BME280;46919;45.816;3.104;2023-05-13T09:36:37;97943.66;;;12.77;100.00
61039;BME280;46919;45.816;3.104;2023-05-13T09:39:02;97940.69;;;12.78;100.00
61039;BME280;46919;45.816;3.104;2023-05-13T09:41:29;97947.88;;;12.73;100.00
61039;BME280;46919;45.816;3.104;2023-05-13T09:43:57;97953.66;;;12.76;100.00
61039;BME280;46919;45.816;3.104;2023-05-13T09:46:23;97956.47;;;12.81;100.00
61039;BME280;46919;45.816;3.104;2023-05-13T09:48:49;97957.78;;;12.79;100.00
61039;BME280;46919;45.816;3.104;2023-05-13T09:51:27;97952.13;;;12.80;100.00
61039;BME280;46919;45.816;3.104;2023-05-13T09:54:02;97960.72;;;12.77;100.00
61039;BME280;46919;45.816;3.104;2023-05-13T09:56:27;97959.31;;;12.75;100.00
61039;BME280;46919;45.816;3.104;2023-05-13T09:58:55;97966.03;;;12.72;100.00
61039;BME280;46919;45.816;3.104;2023-05-13T10:01:21;97965.19;;;12.72;100.00
61039;BME280;46919;45.816;3.104;2023-05-13T10:03:46;97962.25;;;12.73;100.00
61039;BME280;46919;45.816;3.104;2023-05-13T10:06:15;97965.56;;;12.75;100.00
61039;BME280;46919;45.816;3.104;2023-05-13T10:08:44;97963.09;;;12.74;100.00
61039;BME280;46919;45.816;3.104;2023-05-13T10:11:11;97958.97;;;12.71;100.00
61039;BME280;46919;45.816;3.104;2023-05-13T10:13:40;97963.81;;;12.69;100.00
61039;BME280;46919;45.816;3.104;2023-05-13T10:16:07;97963.81;;;12.69;100.00
61039;BME280;46919;45.816;3.104;2023-05-13T10:18:33;97962.63;;;12.65;100.00
61039;BME280;46919;45.816;3.104;2023-05-13T10:21:00;97968.50;;;12.62;100.00
61039;BME280;46919;45.816;3.104;2023-05-13T10:23:26;97973.25;;;12.55;100.00
61039;BME280;46919;45.816;3.104;2023-05-13T10:25:53;97971.59;;;12.54;100.00
61039;BME280;46919;45.816;3.104;2023-05-13T10:28:19;97965.69;;;12.57;100.00
61039;BME280;46919;45.816;3.104;2023-05-13T10:30:45;97975.00;;;12.61;100.00
61039;BME280;46919;45.816;3.104;2023-05-13T10:33:11;97970.88;;;12.58;100.00
61039;BME280;46919;45.816;3.104;2023-05-13T10:35:39;97973.25;;;12.55;100.00
61039;BME280;46919;45.816;3.104;2023-05-13T10:38:16;97966.97;;;12.54;100.00
61039;BME280;46919;45.816;3.104;2023-05-13T10:41:09;97969.09;;;12.52;100.00
61039;BME280;46919;45.816;3.104;2023-05-13T10:43:36;97969.00;;;12.47;100.00
61039;BME280;46919;45.816;3.104;2023-05-13T10:46:06;97974.41;;;12.47;100.00
61039;BME280;46919;45.816;3.104;2023-05-13T10:48:47;97979.81;;;12.35;100.00
61039;BME280;46919;45.816;3.104;2023-05-13T10:51:13;97966.50;;;12.33;100.00
61039;BME280;46919;45.816;3.104;2023-05-13T10:53:50;97978.19;;;12.34;100.00
61039;BME280;46919;45.816;3.104;2023-05-13T10:56:18;97966.25;;;12.35;100.00
61039;BME280;46919;45.816;3.104;2023-05-13T10:58:59;97964.41;;;12.36;100.00
61039;BME280;46919;45.816;3.104;2023-05-13T11:01:36;97972.53;;;12.36;100.00
61039;BME280;46919;45.816;3.104;2023-05-13T11:04:11;97971.56;;;12.30;100.00
61039;BME280;46919;45.816;3.104;2023-05-13T11:06:40;97975.31;;;12.29;100.00
61039;BME280;46919;45.816;3.104;2023-05-13T11:09:07;97970.97;;;12.28;100.00
61039;BME280;46919;45.816;3.104;2023-05-13T11:11:36;97972.38;;;12.30;100.00
61039;BME280;46919;45.816;3.104;2023-05-13T11:14:05;97968.75;;;12.37;100.00
61039;BME280;46919;45.816;3.104;2023-05-13T11:16:35;97972.41;;;12.42;100.00
61039;BME280;46919;45.816;3.104;2023-05-13T11:19:02;97969.44;;;12.56;100.00
61039;BME280;46919;45.816;3.104;2023-05-13T11:21:30;97967.47;;;12.63;100.00
61039;BME280;46919;45.816;3.104;2023-05-13T11:24:00;97965.81;;;12.62;100.00
61039;BME280;46919;45.816;3.104;2023-05-13T11:26:45;97964.75;;;12.63;100.00
61039;BME280;46919;45.816;3.104;2023-05-13T11:29:11;97968.63;;;12.67;100.00
61039;BME280;46919;45.816;3.104;2023-05-13T11:31:49;97967.22;;;12.76;100.00
61039;BME280;46919;45.816;3.104;2023-05-13T11:34:17;97963.44;;;12.77;100.00
61039;BME280;46919;45.816;3.104;2023-05-13T11:36:54;97960.16;;;12.75;100.00
61039;BME280;46919;45.816;3.104;2023-05-13T11:39:22;97960.97;;;12.76;100.00
61039;BME280;46919;45.816;3.104;2023-05-13T11:41:49;97963.69;;;12.76;100.00
61039;BME280;46919;45.816;3.104;2023-05-13T11:44:20;97958.47;;;12.86;100.00
61039;BME280;46919;45.816;3.104;2023-05-13T11:46:57;97958.38;;;12.93;100.00
61039;BME280;46919;45.816;3.104;2023-05-13T11:52:03;97961.53;;;13.01;100.00
61039;BME280;46919;45.816;3.104;2023-05-13T11:54:29;97953.63;;;13.00;100.00
61039;BME280;46919;45.816;3.104;2023-05-13T11:56:54;97955.75;;;12.98;100.00
61039;BME280;46919;45.816;3.104;2023-05-13T11:59:20;97954.66;;;12.99;100.00
61039;BME280;46919;45.816;3.104;2023-05-13T12:01:57;97958.94;;;12.95;100.00
61039;BME280;46919;45.816;3.104;2023-05-13T12:04:27;97956.69;;;12.92;100.00
61039;BME280;46919;45.816;3.104;2023-05-13T12:06:53;97965.03;;;13.02;100.00
61039;BME280;46919;45.816;3.104;2023-05-13T12:09:21;97967.66;;;13.09;100.00
61039;BME280;46919;45.816;3.104;2023-05-13T12:11:47;97966.56;;;13.10;100.00
61039;BME280;46919;45.816;3.104;2023-05-13T12:14:13;97963.50;;;13.06;100.00
61039;BME280;46919;45.816;3.104;2023-05-13T12:16:38;97961.63;;;13.07;100.00
61039;BME280;46919;45.816;3.104;2023-05-13T12:19:06;97958.91;;;13.07;100.00
61039;BME280;46919;45.816;3.104;2023-05-13T12:21:31;97961.50;;;13.13;100.00
61039;BME280;46919;45.816;3.104;2023-05-13T12:23:57;97963.13;;;13.26;100.00
61039;BME280;46919;45.816;3.104;2023-05-13T12:26:23;97961.75;;;13.52;100.00
61039;BME280;46919;45.816;3.104;2023-05-13T12:28:56;97961.75;;;13.81;100.00
61039;BME280;46919;45.816;3.104;2023-05-13T12:31:21;97960.38;;;13.95;100.00
61039;BME280;46919;45.816;3.104;2023-05-13T12:33:48;97963.84;;;14.08;100.00
61039;BME280;46919;45.816;3.104;2023-05-13T12:36:20;97965.66;;;14.19;100.00
61039;BME280;46919;45.816;3.104;2023-05-13T12:38:58;97962.38;;;14.17;100.00
61039;BME280;46919;45.816;3.104;2023-05-13T12:41:25;97964.78;;;14.13;100.00
61039;BME280;46919;45.816;3.104;2023-05-13T12:43:56;97959.38;;;14.02;100.00
61039;BME280;46919;45.816;3.104;2023-05-13T12:46:22;97962.03;;;13.97;100.00
61039;BME280;46919;45.816;3.104;2023-05-13T12:48:51;97965.31;;;13.99;100.00
61039;BME280;46919;45.816;3.104;2023-05-13T12:51:16;97962.84;;;13.97;100.00
61039;BME280;46919;45.816;3.104;2023-05-13T12:53:42;97963.41;;;13.82;100.00
61039;BME280;46919;45.816;3.104;2023-05-13T12:56:07;97966.06;;;13.65;100.00
61039;BME280;46919;45.816;3.104;2023-05-13T12:58:32;97964.38;;;13.47;100.00
61039;BME280;46919;45.816;3.104;2023-05-13T13:00:58;97964.28;;;13.30;100.00